Time;durP1;ratioP1;P1;durP2;ratioP2;P2;SDS_P1;SDS_P2;PMS_P1;PMS_P2;Temp;Humidity;BMP_temperature;BMP_pressure;BME280_temperature;BME280_humidity;BME280_pressure;Samples;Min_cycle;Max_cycle;Signal;HPM_P1;HPM_P2
2022/08/20 00:00:41;;;;;;;;;;;25.50;53.60;;;;;;5023375;28;19932;-78
2022/08/20 00:03:09;;;;;;;;;;;25.50;53.70;;;;;;5020476;28;19929;-76
2022/08/20 00:05:38;;;;;;;;;;;25.40;53.80;;;;;;5017619;28;19929;-77
2022/08/20 00:08:05;;;;;;;;;;;25.40;53.90;;;;;;5022025;28;19937;-77
2022/08/20 00:10:33;;;;;;;;;;;25.40;53.90;;;;;;5022627;28;19936;-77
2022/08/20 00:13:01;;;;;;;;;;;25.30;54.00;;;;;;5025996;28;19936;-77
2022/08/20 00:15:29;;;;;;;;;;;25.30;54.10;;;;;;5022940;28;20019;-77
2022/08/20 00:17:56;;;;;;;;;;;25.30;54.20;;;;;;5018855;28;19929;-77
2022/08/20 00:20:23;;;;;;;;;;;25.30;54.30;;;;;;5021825;28;19925;-77
2022/08/20 00:22:52;;;;;;;;;;;25.20;54.50;;;;;;5021633;28;20080;-77
2022/08/20 00:25:19;;;;;;;;;;;25.20;54.50;;;;;;5020939;28;19929;-77
2022/08/20 00:27:46;;;;;;;;;;;25.10;54.40;;;;;;5019884;28;19936;-77
2022/08/20 00:30:13;;;;;;;;;;;25.10;54.60;;;;;;5020617;28;19937;-77
2022/08/20 00:32:44;;;;;;;;;;;25.10;54.80;;;;;;5021149;28;19940;-78
2022/08/20 00:35:11;;;;;;;;;;;25.10;54.90;;;;;;5021325;28;19937;-77
2022/08/20 00:37:38;;;;;;;;;;;25.00;55.00;;;;;;5016686;28;20638;-77
2022/08/20 00:40:07;;;;;;;;;;;25.00;55.00;;;;;;5019032;28;20309;-77
2022/08/20 00:42:39;;;;;;;;;;;25.00;55.00;;;;;;5019669;28;19929;-77
2022/08/20 00:45:06;;;;;;;;;;;25.00;55.30;;;;;;5019352;28;19929;-77
2022/08/20 00:47:33;;;;;;;;;;;24.90;55.40;;;;;;5018432;28;19936;-77
2022/08/20 00:49:59;;;;;;;;;;;24.90;55.40;;;;;;5019370;28;19933;-77
2022/08/20 00:52:26;;;;;;;;;;;24.90;55.50;;;;;;5023478;28;19933;-77
2022/08/20 00:54:55;;;;;;;;;;;24.80;55.60;;;;;;5018846;28;19987;-77
2022/08/20 00:57:25;;;;;;;;;;;24.80;55.70;;;;;;5017693;28;19933;-77
2022/08/20 00:59:52;;;;;;;;;;;24.80;55.80;;;;;;5016134;28;20131;-77
2022/08/20 01:02:20;;;;;;;;;;;24.80;56.00;;;;;;5020629;28;19929;-76
2022/08/20 01:04:49;;;;;;;;;;;24.70;56.00;;;;;;5019234;28;19929;-76
2022/08/20 01:07:19;;;;;;;;;;;24.70;56.00;;;;;;5020566;28;19933;-77
2022/08/20 01:09:46;;;;;;;;;;;24.70;56.10;;;;;;5014963;28;19929;-74
2022/08/20 01:12:14;;;;;;;;;;;24.70;56.40;;;;;;5020163;28;19935;-77
2022/08/20 01:14:45;;;;;;;;;;;24.60;56.30;;;;;;5018663;28;19933;-76
2022/08/20 01:17:14;;;;;;;;;;;24.60;56.50;;;;;;5021192;28;19991;-76
2022/08/20 01:19:43;;;;;;;;;;;24.50;56.50;;;;;;5016007;28;19929;-77
2022/08/20 01:24:52;;;;;;;;;;;24.50;56.60;;;;;;5017375;28;19956;-77
2022/08/20 01:27:21;;;;;;;;;;;24.50;56.90;;;;;;5018448;28;19928;-77
2022/08/20 01:29:48;;;;;;;;;;;24.50;56.80;;;;;;5015672;28;19929;-78
2022/08/20 01:32:15;;;;;;;;;;;24.40;56.90;;;;;;5019276;28;19935;-77
2022/08/20 01:34:42;;;;;;;;;;;24.40;57.00;;;;;;5020279;28;19933;-77
2022/08/20 01:37:08;;;;;;;;;;;24.40;57.10;;;;;;5018559;28;19988;-77
2022/08/20 01:39:36;;;;;;;;;;;24.40;57.10;;;;;;5022635;28;19929;-77
2022/08/20 01:42:06;;;;;;;;;;;24.30;57.10;;;;;;5023737;28;19951;-77
2022/08/20 01:44:35;;;;;;;;;;;24.30;57.20;;;;;;5018550;28;19938;-77
2022/08/20 01:47:09;;;;;;;;;;;24.30;57.20;;;;;;5017118;28;19952;-77
2022/08/20 01:49:42;;;;;;;;;;;24.30;57.30;;;;;;5017234;28;20297;-77
2022/08/20 01:52:10;;;;;;;;;;;24.30;57.50;;;;;;5020485;28;19933;-77
2022/08/20 01:54:37;;;;;;;;;;;24.20;57.60;;;;;;5020358;28;19929;-77
2022/08/20 01:57:05;;;;;;;;;;;24.20;57.60;;;;;;5025298;28;19925;-77
2022/08/20 01:59:31;;;;;;;;;;;24.20;57.70;;;;;;5017793;28;19936;-77
2022/08/20 02:02:01;;;;;;;;;;;24.20;57.70;;;;;;5017829;28;19941;-77
2022/08/20 02:04:28;;;;;;;;;;;24.20;57.80;;;;;;5012632;28;19936;-77
2022/08/20 02:06:55;;;;;;;;;;;24.20;57.90;;;;;;5020626;28;20729;-77
2022/08/20 02:09:22;;;;;;;;;;;24.10;58.00;;;;;;5021590;28;19933;-77
2022/08/20 02:11:49;;;;;;;;;;;24.00;58.00;;;;;;5020432;28;19933;-77
2022/08/20 02:14:16;;;;;;;;;;;24.00;58.10;;;;;;5024234;28;20381;-77
2022/08/20 02:16:46;;;;;;;;;;;24.10;58.10;;;;;;5017503;28;19936;-77
2022/08/20 02:19:16;;;;;;;;;;;24.00;58.70;;;;;;5016227;28;19933;-77
2022/08/20 02:21:44;;;;;;;;;;;24.00;58.30;;;;;;5018325;28;19929;-77
2022/08/20 02:24:11;;;;;;;;;;;24.00;58.20;;;;;;5019294;28;20024;-77
2022/08/20 02:26:37;;;;;;;;;;;24.00;58.40;;;;;;5020654;28;19951;-78
2022/08/20 02:29:05;;;;;;;;;;;24.00;58.50;;;;;;5016875;28;19929;-78
2022/08/20 02:31:32;;;;;;;;;;;23.90;58.40;;;;;;5014330;28;20024;-77
2022/08/20 02:33:58;;;;;;;;;;;23.90;58.60;;;;;;5017333;28;19929;-78
2022/08/20 02:36:26;;;;;;;;;;;23.90;58.60;;;;;;5019216;28;19944;-77
2022/08/20 02:38:53;;;;;;;;;;;24.00;58.70;;;;;;5014312;28;19971;-77
2022/08/20 02:41:20;;;;;;;;;;;23.90;58.70;;;;;;5019624;28;19937;-77
2022/08/20 02:43:48;;;;;;;;;;;23.90;58.90;;;;;;5018376;28;20027;-76
2022/08/20 02:46:15;;;;;;;;;;;23.90;58.80;;;;;;5016676;28;20020;-77
2022/08/20 02:48:42;;;;;;;;;;;23.80;58.80;;;;;;5018361;28;20535;-77
2022/08/20 02:51:09;;;;;;;;;;;23.80;58.80;;;;;;5017919;28;20042;-77
2022/08/20 02:53:38;;;;;;;;;;;23.80;58.80;;;;;;5020648;28;20653;-77
2022/08/20 02:56:05;;;;;;;;;;;23.80;58.90;;;;;;5018371;28;19929;-78
2022/08/20 02:58:32;;;;;;;;;;;23.80;58.90;;;;;;5022418;28;19929;-77
2022/08/20 03:00:58;;;;;;;;;;;23.80;58.90;;;;;;5024178;28;19929;-77
2022/08/20 03:03:25;;;;;;;;;;;23.80;59.00;;;;;;5021009;28;19936;-77
2022/08/20 03:05:53;;;;;;;;;;;23.80;59.10;;;;;;5022846;28;19929;-77
2022/08/20 03:08:21;;;;;;;;;;;23.80;59.10;;;;;;5020909;28;19955;-77
2022/08/20 03:10:50;;;;;;;;;;;23.80;59.20;;;;;;5021873;28;19961;-77
2022/08/20 03:13:17;;;;;;;;;;;23.70;59.20;;;;;;5029046;28;19940;-77
2022/08/20 03:15:45;;;;;;;;;;;23.70;59.20;;;;;;5024910;28;19929;-77
2022/08/20 03:18:12;;;;;;;;;;;23.70;59.30;;;;;;5022657;28;19970;-77
2022/08/20 03:20:39;;;;;;;;;;;23.70;59.40;;;;;;5021481;28;19925;-77
2022/08/20 03:23:05;;;;;;;;;;;23.70;59.30;;;;;;5021971;28;19951;-77
2022/08/20 03:25:32;;;;;;;;;;;23.70;59.30;;;;;;5020351;28;20321;-76
2022/08/20 03:28:00;;;;;;;;;;;23.70;59.40;;;;;;5021695;28;19937;-77
2022/08/20 03:30:28;;;;;;;;;;;23.70;59.50;;;;;;5018202;28;19933;-78
2022/08/20 03:32:55;;;;;;;;;;;23.70;59.50;;;;;;5023417;28;20710;-77
2022/08/20 03:35:22;;;;;;;;;;;23.60;59.50;;;;;;5024531;28;19929;-77
2022/08/20 03:37:49;;;;;;;;;;;23.60;59.60;;;;;;5018377;28;20169;-77
2022/08/20 03:40:17;;;;;;;;;;;23.70;59.60;;;;;;5019131;28;19944;-77
2022/08/20 03:42:43;;;;;;;;;;;23.60;59.60;;;;;;5023314;28;20326;-77
2022/08/20 03:45:12;;;;;;;;;;;23.60;59.60;;;;;;5022056;28;19929;-78
2022/08/20 03:47:39;;;;;;;;;;;23.60;59.60;;;;;;5020114;28;19956;-77
2022/08/20 03:50:07;;;;;;;;;;;23.60;59.70;;;;;;5018860;28;19956;-77
2022/08/20 03:52:33;;;;;;;;;;;23.60;59.60;;;;;;5023729;28;19933;-77
2022/08/20 03:55:00;;;;;;;;;;;23.60;59.70;;;;;;5019663;28;19933;-77
2022/08/20 03:57:27;;;;;;;;;;;23.50;59.80;;;;;;5020858;28;20636;-77
2022/08/20 03:59:54;;;;;;;;;;;23.50;59.80;;;;;;5018861;28;19933;-77
2022/08/20 04:02:23;;;;;;;;;;;23.50;60.00;;;;;;5020361;28;20815;-77
2022/08/20 04:04:50;;;;;;;;;;;23.50;60.00;;;;;;5020695;28;19929;-77
2022/08/20 04:07:24;;;;;;;;;;;23.50;60.10;;;;;;5022521;28;19936;-77
2022/08/20 04:09:51;;;;;;;;;;;23.50;60.20;;;;;;5016400;28;19937;-77
2022/08/20 04:12:17;;;;;;;;;;;23.50;60.20;;;;;;5021168;28;20317;-76
2022/08/20 04:14:44;;;;;;;;;;;23.50;60.40;;;;;;5022733;28;19933;-77
2022/08/20 04:17:12;;;;;;;;;;;23.50;60.70;;;;;;5018472;28;19944;-77
2022/08/20 04:19:41;;;;;;;;;;;23.50;60.80;;;;;;5018419;28;20663;-76
2022/08/20 04:22:07;;;;;;;;;;;23.40;61.30;;;;;;5018429;28;19936;-76
2022/08/20 04:24:34;;;;;;;;;;;23.50;62.00;;;;;;5021115;28;19941;-76
2022/08/20 04:27:02;;;;;;;;;;;23.40;62.10;;;;;;5021644;28;20396;-77
2022/08/20 04:29:28;;;;;;;;;;;23.40;62.60;;;;;;5020439;28;19996;-76
2022/08/20 04:31:55;;;;;;;;;;;23.40;62.90;;;;;;5017399;28;19929;-76
2022/08/20 04:34:22;;;;;;;;;;;23.40;63.30;;;;;;5018129;28;20047;-76
2022/08/20 04:36:50;;;;;;;;;;;23.40;63.60;;;;;;5022675;28;19936;-76
2022/08/20 04:39:17;;;;;;;;;;;23.40;63.90;;;;;;5018771;28;19936;-76
2022/08/20 04:41:44;;;;;;;;;;;23.30;64.00;;;;;;5019656;28;19971;-76
2022/08/20 04:44:11;;;;;;;;;;;23.30;64.20;;;;;;5022144;28;19932;-76
2022/08/20 04:46:38;;;;;;;;;;;23.30;64.50;;;;;;5018788;28;19936;-76
2022/08/20 04:49:05;;;;;;;;;;;23.30;64.60;;;;;;5013548;28;19941;-77
2022/08/20 04:51:32;;;;;;;;;;;23.20;64.70;;;;;;5018636;28;20592;-76
2022/08/20 04:54:01;;;;;;;;;;;23.20;64.80;;;;;;5025829;28;20552;-76
2022/08/20 04:56:29;;;;;;;;;;;23.20;64.90;;;;;;5018544;28;19971;-76
2022/08/20 04:58:58;;;;;;;;;;;23.20;65.10;;;;;;5016710;28;19933;-76
2022/08/20 05:01:25;;;;;;;;;;;23.10;65.30;;;;;;5022132;28;20716;-76
2022/08/20 05:03:53;;;;;;;;;;;23.10;65.50;;;;;;5021730;28;19929;-76
2022/08/20 05:06:20;;;;;;;;;;;23.10;65.70;;;;;;5015996;28;19933;-76
2022/08/20 05:08:47;;;;;;;;;;;23.00;65.70;;;;;;5009846;28;19929;-73
2022/08/20 05:11:14;;;;;;;;;;;23.00;65.70;;;;;;5011174;28;19941;-75
2022/08/20 05:13:41;;;;;;;;;;;23.00;66.00;;;;;;5013096;28;20396;-76
2022/08/20 05:16:08;;;;;;;;;;;23.00;66.10;;;;;;5020537;28;19929;-77
2022/08/20 05:18:35;;;;;;;;;;;22.90;66.10;;;;;;5020328;28;19940;-76
2022/08/20 05:21:04;;;;;;;;;;;23.00;67.20;;;;;;5022613;28;20529;-76
2022/08/20 05:23:32;;;;;;;;;;;22.90;66.50;;;;;;5017550;28;19929;-77
2022/08/20 05:25:58;;;;;;;;;;;22.90;66.60;;;;;;5017137;28;19929;-76
2022/08/20 05:28:31;;;;;;;;;;;22.80;66.60;;;;;;5019763;28;20486;-76
2022/08/20 05:30:58;;;;;;;;;;;22.80;66.60;;;;;;5019727;28;19933;-76
2022/08/20 05:33:24;;;;;;;;;;;22.80;66.90;;;;;;5016735;28;19940;-76
2022/08/20 05:35:52;;;;;;;;;;;22.80;67.00;;;;;;5015323;28;20408;-76
2022/08/20 05:38:20;;;;;;;;;;;22.80;67.20;;;;;;5020687;28;19968;-77
2022/08/20 05:40:46;;;;;;;;;;;22.80;67.20;;;;;;5017565;28;20375;-74
2022/08/20 05:43:13;;;;;;;;;;;22.70;67.40;;;;;;5014983;28;19937;-77
2022/08/20 05:45:42;;;;;;;;;;;22.70;67.50;;;;;;5016036;28;20538;-78
2022/08/20 05:48:10;;;;;;;;;;;22.70;67.50;;;;;;5016343;28;19932;-77
2022/08/20 05:50:37;;;;;;;;;;;22.70;67.50;;;;;;5018872;28;19975;-75
2022/08/20 05:53:04;;;;;;;;;;;22.60;67.60;;;;;;5020351;28;19936;-76
2022/08/20 05:55:31;;;;;;;;;;;22.70;67.70;;;;;;5019563;28;19929;-76
2022/08/20 05:57:58;;;;;;;;;;;22.60;67.70;;;;;;5016086;28;19933;-75
2022/08/20 06:00:24;;;;;;;;;;;22.60;67.70;;;;;;5017896;28;19952;-76
2022/08/20 06:05:37;;;;;;;;;;;22.50;67.90;;;;;;5016935;28;19940;-76
2022/08/20 06:08:04;;;;;;;;;;;22.50;67.90;;;;;;5015878;28;20574;-75
2022/08/20 06:10:30;;;;;;;;;;;22.60;68.10;;;;;;5015372;28;19933;-76
2022/08/20 06:12:57;;;;;;;;;;;22.50;68.20;;;;;;5017576;28;19929;-76
2022/08/20 06:15:23;;;;;;;;;;;22.50;68.20;;;;;;5019356;28;19936;-76
2022/08/20 06:17:50;;;;;;;;;;;22.40;68.30;;;;;;5011948;28;19929;-76
2022/08/20 06:20:18;;;;;;;;;;;22.40;68.40;;;;;;5018182;28;19929;-76
2022/08/20 06:22:44;;;;;;;;;;;22.40;68.50;;;;;;5014798;28;19925;-75
2022/08/20 06:25:11;;;;;;;;;;;22.50;68.70;;;;;;5016631;28;20016;-74
2022/08/20 06:27:38;;;;;;;;;;;22.40;68.60;;;;;;5019962;28;19935;-76
2022/08/20 06:30:06;;;;;;;;;;;22.40;68.70;;;;;;5013398;28;19929;-76
2022/08/20 06:32:32;;;;;;;;;;;22.40;68.70;;;;;;5014435;28;19933;-74
2022/08/20 06:35:00;;;;;;;;;;;22.40;68.60;;;;;;5015497;28;19934;-74
2022/08/20 06:37:29;;;;;;;;;;;22.40;68.70;;;;;;5019130;28;19959;-76
2022/08/20 06:39:59;;;;;;;;;;;22.40;68.70;;;;;;5020067;28;20724;-76
2022/08/20 06:42:26;;;;;;;;;;;22.40;68.60;;;;;;5020228;28;19934;-74
2022/08/20 06:44:52;;;;;;;;;;;22.40;68.60;;;;;;5021672;28;19936;-74
2022/08/20 06:47:20;;;;;;;;;;;22.40;68.70;;;;;;5020280;28;19933;-75
2022/08/20 06:49:47;;;;;;;;;;;22.40;68.70;;;;;;5021197;28;20385;-72
2022/08/20 06:52:14;;;;;;;;;;;22.40;68.70;;;;;;5019530;28;19994;-75
2022/08/20 06:54:42;;;;;;;;;;;22.40;68.80;;;;;;5018819;28;20393;-75
2022/08/20 06:57:09;;;;;;;;;;;22.40;68.80;;;;;;5020359;28;19933;-74
2022/08/20 06:59:36;;;;;;;;;;;22.40;68.80;;;;;;5021265;28;19933;-74
2022/08/20 07:02:03;;;;;;;;;;;22.40;68.90;;;;;;5019299;28;19977;-75
2022/08/20 07:04:30;;;;;;;;;;;22.40;68.90;;;;;;5021725;28;19933;-74
2022/08/20 07:06:57;;;;;;;;;;;22.40;69.00;;;;;;5021396;28;19929;-75
2022/08/20 07:09:24;;;;;;;;;;;22.40;69.00;;;;;;5016116;28;19969;-74
2022/08/20 07:11:52;;;;;;;;;;;22.40;69.00;;;;;;5017743;28;19933;-74
2022/08/20 07:14:19;;;;;;;;;;;22.40;69.10;;;;;;5018914;28;19936;-76
2022/08/20 07:16:46;;;;;;;;;;;22.40;69.10;;;;;;5019852;28;20656;-74
2022/08/20 07:19:13;;;;;;;;;;;22.40;69.10;;;;;;5020630;28;19959;-75
2022/08/20 07:21:40;;;;;;;;;;;22.40;69.10;;;;;;5018664;28;19929;-74
2022/08/20 07:24:08;;;;;;;;;;;22.40;69.10;;;;;;5020308;28;19929;-75
2022/08/20 07:26:35;;;;;;;;;;;22.40;69.10;;;;;;5020579;28;20037;-77
2022/08/20 07:29:03;;;;;;;;;;;22.40;69.20;;;;;;5021640;28;20393;-75
2022/08/20 07:34:14;;;;;;;;;;;22.40;69.30;;;;;;5022755;28;19987;-76
2022/08/20 07:36:42;;;;;;;;;;;22.40;69.30;;;;;;5017055;28;19928;-74
2022/08/20 07:39:08;;;;;;;;;;;22.40;69.40;;;;;;5015594;28;20031;-74
2022/08/20 07:41:35;;;;;;;;;;;22.40;69.30;;;;;;5015173;28;19936;-77
2022/08/20 07:44:03;;;;;;;;;;;22.40;69.20;;;;;;5019537;28;19929;-75
2022/08/20 07:46:30;;;;;;;;;;;22.40;69.20;;;;;;5022281;28;20127;-74
2022/08/20 07:48:56;;;;;;;;;;;22.40;69.20;;;;;;5016974;28;19943;-75
2022/08/20 07:51:23;;;;;;;;;;;22.40;69.10;;;;;;5019700;28;19958;-75
2022/08/20 07:53:50;;;;;;;;;;;22.40;69.10;;;;;;5020398;28;19936;-75
2022/08/20 07:56:18;;;;;;;;;;;22.40;69.30;;;;;;5015595;28;19929;-75
2022/08/20 07:58:48;;;;;;;;;;;22.40;69.30;;;;;;5015013;28;20051;-76
2022/08/20 08:01:17;;;;;;;;;;;22.40;69.40;;;;;;5017904;28;20329;-75
2022/08/20 08:03:44;;;;;;;;;;;22.40;69.40;;;;;;5017669;28;19943;-75
2022/08/20 08:06:10;;;;;;;;;;;22.50;69.70;;;;;;5022392;28;19933;-74
2022/08/20 08:08:38;;;;;;;;;;;22.40;69.60;;;;;;5020159;28;19936;-73
2022/08/20 08:11:04;;;;;;;;;;;22.40;69.70;;;;;;5016785;28;19940;-72
2022/08/20 08:13:34;;;;;;;;;;;22.40;69.70;;;;;;5021799;28;19933;-75
2022/08/20 08:16:01;;;;;;;;;;;22.40;69.70;;;;;;5015726;28;19937;-75
2022/08/20 08:18:33;;;;;;;;;;;22.40;70.20;;;;;;5019447;28;19936;-75
2022/08/20 08:21:00;;;;;;;;;;;22.40;69.80;;;;;;5022154;28;19941;-71
2022/08/20 08:23:28;;;;;;;;;;;22.40;69.70;;;;;;5021517;28;19933;-76
2022/08/20 08:25:55;;;;;;;;;;;22.40;69.80;;;;;;5018931;28;19929;-76
2022/08/20 08:28:22;;;;;;;;;;;22.40;69.80;;;;;;5015265;28;19929;-75
2022/08/20 08:30:49;;;;;;;;;;;22.40;69.70;;;;;;5012455;28;20062;-75
2022/08/20 08:33:29;;;;;;;;;;;22.40;69.80;;;;;;5023002;28;19933;-76
2022/08/20 08:35:58;;;;;;;;;;;22.50;69.90;;;;;;5023250;28;19929;-75
2022/08/20 08:38:26;;;;;;;;;;;22.40;69.80;;;;;;5023536;28;19948;-75
2022/08/20 08:40:54;;;;;;;;;;;22.40;69.80;;;;;;5020689;28;19951;-74
2022/08/20 08:43:23;;;;;;;;;;;22.50;69.90;;;;;;5017594;28;19937;-73
2022/08/20 08:45:52;;;;;;;;;;;22.50;69.80;;;;;;5018382;28;20419;-76
2022/08/20 08:48:20;;;;;;;;;;;22.50;69.90;;;;;;5018742;28;20392;-74
2022/08/20 08:50:48;;;;;;;;;;;22.50;69.90;;;;;;5018841;28;20389;-75
2022/08/20 08:53:19;;;;;;;;;;;22.50;69.90;;;;;;5018978;28;19940;-74
2022/08/20 08:55:45;;;;;;;;;;;22.50;70.00;;;;;;5018037;28;19952;-74
2022/08/20 08:58:12;;;;;;;;;;;22.50;69.90;;;;;;5016874;28;19929;-74
2022/08/20 09:00:38;;;;;;;;;;;22.50;70.00;;;;;;5018084;28;19933;-76
2022/08/20 09:03:07;;;;;;;;;;;22.50;70.00;;;;;;5020143;28;19925;-76
2022/08/20 09:05:37;;;;;;;;;;;22.50;70.00;;;;;;5017562;28;20415;-74
2022/08/20 09:08:05;;;;;;;;;;;22.50;70.10;;;;;;5019780;28;19937;-75
2022/08/20 09:10:33;;;;;;;;;;;22.60;70.10;;;;;;5019104;28;19929;-76
2022/08/20 09:13:00;;;;;;;;;;;22.50;70.00;;;;;;5016001;28;19929;-75
2022/08/20 09:15:26;;;;;;;;;;;22.50;70.00;;;;;;5016382;28;19957;-73
2022/08/20 09:17:53;;;;;;;;;;;22.60;70.00;;;;;;5013683;28;19929;-74
2022/08/20 09:20:19;;;;;;;;;;;22.60;70.10;;;;;;5019933;28;19968;-75
2022/08/20 09:22:46;;;;;;;;;;;22.60;70.10;;;;;;5019216;28;19955;-74
2022/08/20 09:25:12;;;;;;;;;;;22.60;70.00;;;;;;5015550;28;19933;-75
2022/08/20 09:27:40;;;;;;;;;;;22.60;69.90;;;;;;5017015;28;19929;-74
2022/08/20 09:30:08;;;;;;;;;;;22.60;70.10;;;;;;5016464;28;19929;-75
2022/08/20 09:32:34;;;;;;;;;;;22.70;70.10;;;;;;5018994;28;19933;-75
2022/08/20 09:35:01;;;;;;;;;;;22.70;70.20;;;;;;5022523;28;20452;-74
2022/08/20 09:37:29;;;;;;;;;;;22.70;70.10;;;;;;5022362;28;19933;-74
2022/08/20 09:39:56;;;;;;;;;;;22.70;70.00;;;;;;5020227;28;19929;-75
2022/08/20 09:42:24;;;;;;;;;;;22.70;69.90;;;;;;5018575;28;19937;-76
2022/08/20 09:44:52;;;;;;;;;;;22.70;69.90;;;;;;5021104;28;19929;-75
2022/08/20 09:47:18;;;;;;;;;;;22.70;69.80;;;;;;5020544;28;19944;-76
2022/08/20 09:49:45;;;;;;;;;;;22.70;69.80;;;;;;5023165;28;19940;-75
2022/08/20 09:52:18;;;;;;;;;;;22.80;69.70;;;;;;5007866;28;19940;-75
2022/08/20 09:54:44;;;;;;;;;;;22.80;70.00;;;;;;5019478;28;20465;-75
2022/08/20 09:57:11;;;;;;;;;;;22.80;70.10;;;;;;5009826;28;20584;-75
2022/08/20 09:59:38;;;;;;;;;;;22.90;70.00;;;;;;5016836;28;19987;-74
2022/08/20 10:02:06;;;;;;;;;;;23.00;70.00;;;;;;5020426;28;19964;-75
2022/08/20 10:04:33;;;;;;;;;;;23.00;69.90;;;;;;5016747;28;19936;-75
2022/08/20 10:06:59;;;;;;;;;;;23.00;69.50;;;;;;5018371;28;19930;-75
2022/08/20 10:09:26;;;;;;;;;;;23.10;69.20;;;;;;5023455;28;19936;-75
2022/08/20 10:11:52;;;;;;;;;;;23.20;68.90;;;;;;5022479;28;19940;-75
2022/08/20 10:14:19;;;;;;;;;;;23.20;68.70;;;;;;5022406;28;19933;-75
2022/08/20 10:16:45;;;;;;;;;;;23.30;68.60;;;;;;5017086;28;19929;-77
2022/08/20 10:19:13;;;;;;;;;;;23.40;68.40;;;;;;5014400;28;20634;-75
2022/08/20 10:21:40;;;;;;;;;;;23.40;68.10;;;;;;5021775;28;19936;-75
2022/08/20 10:24:06;;;;;;;;;;;23.50;67.90;;;;;;5025164;28;19929;-75
2022/08/20 10:26:33;;;;;;;;;;;23.50;67.60;;;;;;5023744;28;19932;-76
2022/08/20 10:28:59;;;;;;;;;;;23.50;67.30;;;;;;5025817;28;19929;-73
2022/08/20 10:31:26;;;;;;;;;;;23.60;67.10;;;;;;5020072;28;19936;-76
2022/08/20 10:33:52;;;;;;;;;;;23.70;66.90;;;;;;5019949;28;19925;-74
2022/08/20 10:36:20;;;;;;;;;;;23.70;66.60;;;;;;5022880;28;19940;-75
2022/08/20 10:38:48;;;;;;;;;;;23.70;66.40;;;;;;5023638;28;20027;-73
2022/08/20 10:41:14;;;;;;;;;;;23.70;66.30;;;;;;5024899;28;19933;-74
2022/08/20 10:43:41;;;;;;;;;;;23.80;66.10;;;;;;5023214;28;19936;-77
2022/08/20 10:46:07;;;;;;;;;;;23.90;66.00;;;;;;5025782;28;19929;-75
2022/08/20 10:48:34;;;;;;;;;;;23.90;65.50;;;;;;5025604;28;19955;-76
2022/08/20 10:51:01;;;;;;;;;;;24.00;65.40;;;;;;5025912;28;19933;-76
2022/08/20 10:53:28;;;;;;;;;;;24.00;65.20;;;;;;5023915;28;19937;-75
2022/08/20 10:55:56;;;;;;;;;;;24.10;65.10;;;;;;5023139;28;20011;-76
2022/08/20 10:58:23;;;;;;;;;;;24.10;65.00;;;;;;5024325;28;19929;-76
2022/08/20 11:00:50;;;;;;;;;;;24.20;64.80;;;;;;5024416;28;20584;-76
2022/08/20 11:03:16;;;;;;;;;;;24.20;64.40;;;;;;5024370;28;20396;-76
2022/08/20 11:05:43;;;;;;;;;;;24.20;64.30;;;;;;5025572;28;19925;-76
2022/08/20 11:08:10;;;;;;;;;;;24.30;64.40;;;;;;5026444;28;20412;-76
2022/08/20 11:10:38;;;;;;;;;;;24.30;65.00;;;;;;5018656;28;19967;-76
2022/08/20 11:13:05;;;;;;;;;;;24.30;65.30;;;;;;5019991;28;19936;-75
2022/08/20 11:15:33;;;;;;;;;;;24.30;64.80;;;;;;5023520;28;20345;-76
2022/08/20 11:17:59;;;;;;;;;;;24.40;64.70;;;;;;5020342;28;19931;-75
2022/08/20 11:20:26;;;;;;;;;;;24.40;65.00;;;;;;5023158;28;19936;-76
2022/08/20 11:22:53;;;;;;;;;;;24.40;65.50;;;;;;5024859;28;19929;-76
2022/08/20 11:25:20;;;;;;;;;;;24.40;66.00;;;;;;5021900;28;19936;-76
2022/08/20 11:27:49;;;;;;;;;;;24.40;65.90;;;;;;5021486;28;20313;-76
2022/08/20 11:30:18;;;;;;;;;;;24.40;66.00;;;;;;5022058;28;19933;-77
2022/08/20 11:32:45;;;;;;;;;;;24.40;66.10;;;;;;5023406;28;19936;-76
2022/08/20 11:35:12;;;;;;;;;;;24.40;66.00;;;;;;5021293;28;19937;-76
2022/08/20 11:37:39;;;;;;;;;;;24.40;66.30;;;;;;5023682;28;19929;-77
2022/08/20 11:40:07;;;;;;;;;;;24.40;66.50;;;;;;5023783;28;20412;-76
2022/08/20 11:42:33;;;;;;;;;;;24.50;66.60;;;;;;5020950;28;19929;-77
2022/08/20 11:45:01;;;;;;;;;;;24.40;66.30;;;;;;5021505;28;20003;-77
2022/08/20 11:47:29;;;;;;;;;;;24.50;66.00;;;;;;5010624;28;20700;-76
2022/08/20 11:49:56;;;;;;;;;;;24.50;66.00;;;;;;5017529;28;20405;-74
2022/08/20 11:52:23;;;;;;;;;;;24.50;66.00;;;;;;5023312;28;19929;-76
2022/08/20 11:54:49;;;;;;;;;;;24.50;66.00;;;;;;5021758;28;19936;-77
2022/08/20 11:57:19;;;;;;;;;;;24.50;66.00;;;;;;5017746;28;19929;-75
2022/08/20 11:59:48;;;;;;;;;;;24.50;65.50;;;;;;5020153;28;19941;-77
2022/08/20 12:02:16;;;;;;;;;;;24.60;65.70;;;;;;5020245;28;19933;-77
2022/08/20 12:04:42;;;;;;;;;;;24.50;64.60;;;;;;5022305;28;20675;-76
2022/08/20 12:07:09;;;;;;;;;;;24.60;64.00;;;;;;5022588;28;20514;-76
2022/08/20 12:09:36;;;;;;;;;;;24.50;63.50;;;;;;5019882;28;20048;-77
2022/08/20 12:12:03;;;;;;;;;;;24.60;63.10;;;;;;5018851;28;19929;-76
2022/08/20 12:14:30;;;;;;;;;;;24.70;63.30;;;;;;5018169;28;19925;-79
2022/08/20 12:16:56;;;;;;;;;;;24.70;62.70;;;;;;5016786;28;19940;-72
2022/08/20 12:19:25;;;;;;;;;;;24.90;59.50;;;;;;5011620;28;19936;-74
2022/08/20 12:21:52;;;;;;;;;;;25.10;58.80;;;;;;5019412;28;19935;-73
2022/08/20 12:24:18;;;;;;;;;;;25.50;58.40;;;;;;5015341;28;19941;-76
2022/08/20 12:26:45;;;;;;;;;;;25.60;57.60;;;;;;5018281;28;19940;-74
2022/08/20 12:29:11;;;;;;;;;;;25.80;57.10;;;;;;5012197;28;19980;-74
2022/08/20 12:31:38;;;;;;;;;;;25.90;57.70;;;;;;5007491;28;20703;-75
2022/08/20 12:34:04;;;;;;;;;;;25.90;56.30;;;;;;5011500;28;20696;-73
2022/08/20 12:36:32;;;;;;;;;;;26.20;55.40;;;;;;5014061;28;20425;-74
2022/08/20 12:38:59;;;;;;;;;;;26.30;55.40;;;;;;5013596;28;20305;-75
2022/08/20 12:41:25;;;;;;;;;;;26.20;55.80;;;;;;5009667;28;19940;-76
2022/08/20 12:43:52;;;;;;;;;;;26.10;56.10;;;;;;5017836;28;19929;-75
2022/08/20 12:46:18;;;;;;;;;;;25.90;56.90;;;;;;5022335;28;19933;-77
2022/08/20 12:48:45;;;;;;;;;;;25.80;56.90;;;;;;5016393;28;19929;-75
2022/08/20 12:51:11;;;;;;;;;;;25.80;56.70;;;;;;5018165;28;20387;-77
2022/08/20 12:53:39;;;;;;;;;;;25.70;55.90;;;;;;5022652;28;19929;-76
2022/08/20 12:56:06;;;;;;;;;;;25.70;55.90;;;;;;5017065;28;19929;-74
2022/08/20 12:58:33;;;;;;;;;;;25.70;55.90;;;;;;5020056;28;20377;-73
2022/08/20 13:01:00;;;;;;;;;;;25.80;52.90;;;;;;5018978;28;20385;-75
2022/08/20 13:03:26;;;;;;;;;;;26.00;50.90;;;;;;5017982;28;19936;-75
2022/08/20 13:05:53;;;;;;;;;;;26.10;51.60;;;;;;5017537;28;19929;-74
2022/08/20 13:08:19;;;;;;;;;;;26.10;51.60;;;;;;5022906;28;19940;-75
2022/08/20 13:10:47;;;;;;;;;;;26.10;52.30;;;;;;5019925;28;19932;-75
2022/08/20 13:13:14;;;;;;;;;;;26.10;52.70;;;;;;5029450;28;19935;-77
2022/08/20 13:15:41;;;;;;;;;;;26.10;53.20;;;;;;5022910;28;20034;-75
2022/08/20 13:18:08;;;;;;;;;;;26.10;53.60;;;;;;5017875;28;19929;-74
2022/08/20 13:20:35;;;;;;;;;;;26.00;53.50;;;;;;5025923;28;19929;-76
2022/08/20 13:23:02;;;;;;;;;;;26.10;53.60;;;;;;5022004;28;20696;-74
2022/08/20 13:25:28;;;;;;;;;;;26.10;54.00;;;;;;5025189;28;19939;-76
2022/08/20 13:27:57;;;;;;;;;;;26.10;53.80;;;;;;5023141;28;19928;-75
2022/08/20 13:30:24;;;;;;;;;;;26.10;55.00;;;;;;5029154;28;19976;-74
2022/08/20 13:32:50;;;;;;;;;;;26.20;55.00;;;;;;5027289;28;19934;-74
2022/08/20 13:35:18;;;;;;;;;;;26.20;54.60;;;;;;5023199;28;19931;-73
2022/08/20 13:37:45;;;;;;;;;;;26.20;53.50;;;;;;5026168;28;19936;-74
2022/08/20 13:40:12;;;;;;;;;;;26.20;55.30;;;;;;5021653;28;19936;-76
2022/08/20 13:42:38;;;;;;;;;;;26.20;53.80;;;;;;5020324;28;20456;-75
2022/08/20 13:45:07;;;;;;;;;;;26.20;54.50;;;;;;5031246;28;20012;-75
2022/08/20 13:47:35;;;;;;;;;;;26.30;52.70;;;;;;5023158;28;19940;-75
2022/08/20 13:50:04;;;;;;;;;;;26.30;54.20;;;;;;5023664;28;19936;-74
2022/08/20 13:52:30;;;;;;;;;;;26.30;53.10;;;;;;5019629;28;19940;-74
2022/08/20 13:54:59;;;;;;;;;;;26.60;49.40;;;;;;5016952;28;21278;-74
2022/08/20 13:57:26;;;;;;;;;;;27.20;43.30;;;;;;5021722;28;19933;-75
2022/08/20 13:59:54;;;;;;;;;;;27.50;45.30;;;;;;5024452;28;19929;-76
2022/08/20 14:02:22;;;;;;;;;;;27.60;46.30;;;;;;5021262;28;19936;-75
2022/08/20 14:04:49;;;;;;;;;;;27.70;46.70;;;;;;5022555;28;20531;-76
2022/08/20 14:07:17;;;;;;;;;;;27.70;46.80;;;;;;5021551;28;20377;-74
2022/08/20 14:09:44;;;;;;;;;;;27.80;47.40;;;;;;5020258;28;19936;-76
2022/08/20 14:12:11;;;;;;;;;;;27.80;48.10;;;;;;5021181;28;19929;-75
2022/08/20 14:14:38;;;;;;;;;;;27.70;48.40;;;;;;5021973;28;19940;-75
2022/08/20 14:17:13;;;;;;;;;;;27.70;48.50;;;;;;5016741;28;19937;-74
2022/08/20 14:19:40;;;;;;;;;;;27.80;48.80;;;;;;5016501;28;19933;-76
2022/08/20 14:22:07;;;;;;;;;;;27.70;49.30;;;;;;5022847;28;19929;-77
2022/08/20 14:24:34;;;;;;;;;;;27.80;48.70;;;;;;5020536;28;19936;-77